Parnaiba, Brazil
Current Conditions -  °F | °C
As of 10:00 PM on Monday 24 Nov 2014 (Local Time) from SBPB Reporting Station
Scattered Clouds Scattered Clouds  
Wind Chill: 82°   Ceiling: Unl
Heat Index: 89°   Visibility: 6mi
Dew Point: 75°   Wind: 22mph
Humidity: 79%   Direction: 110°ESE
Pressure: 29.85"   Gusts: NA
Location:  2.91°S, 41.77°W
Report Text: SBPB 250100Z 11019KT 9999 SCT020 28/24 Q1011
Loading
Personal Weather Stations






























Interactive Weather Map New forecast layout! Learn more

10-Day Weather Forecast

Advertisements
Track Severe Weather on mobile